Terminal Aerodrome Forecast
Issued by NWS

Home | Current Version | Previous Version | Text Only | Print | Product List | Glossary On
Versions: 1 2 3 4 5 6 7 8 9 10 11 12 13 14 15 16 17 18 19 20 21 22 23
000
FTUS41 KBOX 272322
TAFACK
TAF
KACK 272322Z 2800/2824 11005KT P6SM BKN200
     FM280800 VRB03KT 4SM BR SCT040
     FM281100 16005KT P6SM SCT045
     FM282300 14006KT P6SM SCT200=

USA.gov is the U.S. government's official web portal to all federal, state and local government web resources and services.